createdAt,value
2023-02-28T00:00:55.088Z,6.30
2023-02-28T00:03:36.613Z,6.28
2023-02-28T00:06:17.791Z,6.22
2023-02-28T00:08:54.568Z,6.30
2023-02-28T00:11:32.732Z,6.30
2023-02-28T00:14:10.415Z,6.22
2023-02-28T00:16:47.046Z,6.26
2023-02-28T00:19:23.741Z,6.20
2023-02-28T00:22:00.167Z,6.30
2023-02-28T00:24:37.018Z,6.30
2023-02-28T00:27:14.768Z,6.22
2023-02-28T00:29:52.436Z,6.20
2023-02-28T00:32:29.059Z,6.20
2023-02-28T00:35:06.182Z,6.16
2023-02-28T00:37:43.781Z,6.16
2023-02-28T00:40:22.830Z,6.16
2023-02-28T00:42:59.304Z,6.12
2023-02-28T00:45:35.705Z,6.10
2023-02-28T00:48:12.949Z,6.10
2023-02-28T00:50:51.613Z,6.10
2023-02-28T00:53:28.127Z,6.08
2023-02-28T00:56:07.246Z,6.10
2023-02-28T00:58:43.384Z,6.10
2023-02-28T01:01:19.475Z,6.10
2023-02-28T01:03:56.715Z,6.10
2023-02-28T01:06:33.578Z,6.10
2023-02-28T01:09:10.227Z,6.10
2023-02-28T01:11:46.892Z,6.10
2023-02-28T01:14:24.789Z,6.10
2023-02-28T01:17:01.998Z,6.00
2023-02-28T01:19:37.471Z,6.00
2023-02-28T01:22:14.936Z,6.00
2023-02-28T01:24:52.431Z,6.00
2023-02-28T01:27:29.519Z,6.00
2023-02-28T01:30:05.786Z,6.00
2023-02-28T01:32:42.350Z,6.00
2023-02-28T01:35:19.904Z,6.00
2023-02-28T01:37:57.259Z,6.00
2023-02-28T01:40:35.851Z,5.90
2023-02-28T01:43:26.275Z,5.90
2023-02-28T01:46:05.639Z,5.90
2023-02-28T01:48:49.583Z,5.90
2023-02-28T01:51:30.579Z,5.90
2023-02-28T01:54:15.139Z,5.90
2023-02-28T01:56:57.145Z,5.90
2023-02-28T01:59:38.925Z,5.90
2023-02-28T02:02:16.337Z,5.90
2023-02-28T02:05:00.976Z,5.90
2023-02-28T02:07:40.458Z,5.90
2023-02-28T02:10:22.869Z,5.90
2023-02-28T02:13:32.825Z,5.84
2023-02-28T02:16:26.735Z,5.90
2023-02-28T02:19:18.580Z,5.90
2023-02-28T02:22:25.319Z,5.90
2023-02-28T02:25:22.158Z,5.90
2023-02-28T02:28:35.182Z,5.90
2023-02-28T02:32:06.649Z,5.90
2023-02-28T02:35:12.206Z,5.90
2023-02-28T02:37:56.157Z,5.90
2023-02-28T02:40:42.439Z,5.90
2023-02-28T02:43:30.289Z,5.90
2023-02-28T02:46:14.105Z,5.90
2023-02-28T02:48:51.611Z,5.92
2023-02-28T02:51:33.849Z,6.00
2023-02-28T02:54:18.549Z,6.00
2023-02-28T02:56:56.951Z,6.00
2023-02-28T02:59:36.220Z,6.00
2023-02-28T03:02:18.655Z,5.96
2023-02-28T03:05:03.543Z,5.90
2023-02-28T03:07:39.877Z,5.90
2023-02-28T03:10:37.475Z,5.90
2023-02-28T03:14:03.587Z,5.90
2023-02-28T03:16:58.371Z,5.90
2023-02-28T03:20:08.591Z,5.90
2023-02-28T03:23:08.104Z,5.94
2023-02-28T03:25:56.092Z,5.90
2023-02-28T03:28:46.972Z,5.90
2023-02-28T03:31:30.862Z,5.98
2023-02-28T03:34:18.053Z,6.00
2023-02-28T03:37:03.436Z,6.00
2023-02-28T03:39:47.747Z,6.00
2023-02-28T03:42:31.052Z,6.00
2023-02-28T03:45:14.436Z,6.00
2023-02-28T03:48:00.232Z,6.00
2023-02-28T03:50:43.396Z,6.00
2023-02-28T03:53:25.506Z,6.00
2023-02-28T03:56:09.600Z,6.00
2023-02-28T03:58:56.062Z,5.96
2023-02-28T04:01:38.928Z,5.90
2023-02-28T04:04:17.579Z,5.90
2023-02-28T04:06:55.519Z,5.88
2023-02-28T04:09:32.338Z,5.80
2023-02-28T04:12:10.120Z,5.86
2023-02-28T04:14:46.794Z,5.82
2023-02-28T04:17:24.553Z,5.82
2023-02-28T04:20:01.632Z,5.86
2023-02-28T04:22:38.113Z,5.90
2023-02-28T04:25:18.722Z,5.90
2023-02-28T04:27:55.275Z,5.90
2023-02-28T04:30:34.617Z,5.90
2023-02-28T04:33:11.334Z,5.90
2023-02-28T04:35:48.002Z,5.90
2023-02-28T04:38:24.444Z,5.90
2023-02-28T04:41:03.346Z,5.98
2023-02-28T04:43:40.684Z,6.00
2023-02-28T04:46:17.058Z,6.00
2023-02-28T04:48:55.223Z,6.00
2023-02-28T04:51:31.347Z,6.00
2023-02-28T04:54:08.397Z,6.00
2023-02-28T04:56:45.283Z,5.94
2023-02-28T04:59:21.885Z,5.90
2023-02-28T05:01:58.336Z,5.90
2023-02-28T05:04:35.395Z,5.90
2023-02-28T05:07:12.473Z,5.88
2023-02-28T05:09:52.862Z,5.80
2023-02-28T05:12:29.692Z,5.80
2023-02-28T05:15:06.396Z,5.80
2023-02-28T05:17:42.722Z,5.80
2023-02-28T05:20:23.159Z,5.80
2023-02-28T05:23:00.552Z,5.76
2023-02-28T05:26:03.855Z,5.80
2023-02-28T05:28:40.370Z,5.80
2023-02-28T05:31:18.217Z,5.80
2023-02-28T05:33:54.107Z,5.80
2023-02-28T05:36:30.836Z,5.80
2023-02-28T05:39:08.475Z,5.80
2023-02-28T05:41:45.405Z,5.80
2023-02-28T05:44:21.590Z,5.80
2023-02-28T05:46:58.498Z,5.80
2023-02-28T05:49:35.735Z,5.80
2023-02-28T05:52:13.321Z,5.80
2023-02-28T05:54:50.679Z,5.80
2023-02-28T05:57:26.682Z,5.80
2023-02-28T06:00:03.128Z,5.80
2023-02-28T06:02:49.819Z,5.80
2023-02-28T06:05:28.042Z,5.70
2023-02-28T06:08:05.286Z,5.70
2023-02-28T06:10:42.849Z,5.72
2023-02-28T06:13:19.030Z,5.70
2023-02-28T06:15:56.434Z,5.70
2023-02-28T06:18:34.485Z,5.70
2023-02-28T06:21:12.832Z,5.70
2023-02-28T06:23:49.031Z,5.72
2023-02-28T06:26:25.753Z,5.80
2023-02-28T06:29:03.412Z,5.90
2023-02-28T06:31:40.278Z,5.92
2023-02-28T06:34:17.433Z,6.00
2023-02-28T06:36:55.859Z,6.10
2023-02-28T06:39:32.548Z,6.10
2023-02-28T06:42:09.227Z,6.20
2023-02-28T06:44:47.945Z,6.20
2023-02-28T06:47:25.460Z,6.20
2023-02-28T06:50:03.092Z,6.20
2023-02-28T06:52:40.289Z,6.28
2023-02-28T06:55:20.100Z,6.30
2023-02-28T06:57:57.367Z,6.32
2023-02-28T07:00:35.917Z,6.38
2023-02-28T07:03:13.706Z,6.40
2023-02-28T07:05:50.740Z,6.40
2023-02-28T07:08:27.578Z,6.44
2023-02-28T07:11:05.150Z,6.50
2023-02-28T07:13:42.744Z,6.50
2023-02-28T07:16:20.744Z,6.50
2023-02-28T07:18:59.154Z,6.60
2023-02-28T07:21:35.810Z,6.60
2023-02-28T07:24:16.994Z,6.62
2023-02-28T07:26:54.033Z,6.70
2023-02-28T07:29:31.292Z,6.70
2023-02-28T07:32:08.892Z,6.70
2023-02-28T07:34:45.466Z,6.76
2023-02-28T07:37:21.918Z,6.80
2023-02-28T07:40:00.304Z,6.90
2023-02-28T07:42:37.772Z,6.90
2023-02-28T07:45:17.966Z,7.00
2023-02-28T07:47:54.898Z,6.90
2023-02-28T07:50:32.332Z,6.90
2023-02-28T07:53:08.559Z,6.90
2023-02-28T07:55:45.845Z,7.00
2023-02-28T07:58:23.415Z,7.04
2023-02-28T08:01:00.556Z,7.10
2023-02-28T08:03:36.744Z,7.20
2023-02-28T08:06:22.407Z,7.20
2023-02-28T08:08:59.421Z,7.30
2023-02-28T08:11:36.547Z,7.40
2023-02-28T08:14:13.257Z,7.48
2023-02-28T08:16:49.537Z,7.50
2023-02-28T08:19:25.520Z,7.50
2023-02-28T08:22:03.739Z,7.60
2023-02-28T08:24:40.825Z,7.70
2023-02-28T08:27:16.961Z,7.70
2023-02-28T08:29:54.107Z,7.70
2023-02-28T08:32:30.821Z,7.70
2023-02-28T08:35:07.521Z,7.70
2023-02-28T08:37:44.383Z,7.70
2023-02-28T08:40:25.711Z,7.80
2023-02-28T08:43:03.484Z,7.82
2023-02-28T08:45:40.314Z,7.90
2023-02-28T08:48:19.557Z,7.90
2023-02-28T08:51:08.669Z,8.00
2023-02-28T08:53:44.537Z,8.10
2023-02-28T08:56:21.472Z,8.12
2023-02-28T08:58:59.950Z,8.20
2023-02-28T09:01:37.871Z,8.20
2023-02-28T09:04:18.388Z,8.20
2023-02-28T09:06:57.009Z,8.30
2023-02-28T09:09:34.360Z,8.30
2023-02-28T09:12:12.734Z,8.30
2023-02-28T09:14:50.136Z,8.30
2023-02-28T09:17:30.719Z,8.30
2023-02-28T09:20:09.300Z,8.30
2023-02-28T09:22:46.907Z,8.30
2023-02-28T09:25:24.779Z,8.32
2023-02-28T09:28:01.875Z,8.30
2023-02-28T09:30:38.866Z,8.30
2023-02-28T09:33:14.693Z,8.40
2023-02-28T09:35:51.489Z,8.40
2023-02-28T09:38:27.933Z,8.50
2023-02-28T09:41:07.019Z,8.60
2023-02-28T09:43:49.590Z,8.70
2023-02-28T09:46:42.060Z,8.72
2023-02-28T09:49:24.300Z,8.70
2023-02-28T09:52:10.561Z,8.80
2023-02-28T09:54:46.972Z,8.90
2023-02-28T09:57:36.375Z,8.90
2023-02-28T10:00:26.692Z,9.00
2023-02-28T10:03:29.931Z,9.10
2023-02-28T10:06:15.937Z,9.10
2023-02-28T10:09:08.095Z,9.20
2023-02-28T10:14:29.790Z,9.30
2023-02-28T10:17:13.214Z,9.40
2023-02-28T10:19:59.758Z,9.46
2023-02-28T10:22:48.101Z,9.50
2023-02-28T10:25:29.510Z,9.48
2023-02-28T10:28:15.639Z,9.50
2023-02-28T10:30:55.882Z,9.56
2023-02-28T10:33:37.496Z,9.60
2023-02-28T10:36:20.916Z,9.70
2023-02-28T10:38:58.237Z,9.70
2023-02-28T10:41:45.174Z,9.70
2023-02-28T10:44:31.388Z,9.70
2023-02-28T10:47:08.815Z,9.70
2023-02-28T10:49:53.962Z,9.86
2023-02-28T10:52:46.628Z,9.96
2023-02-28T10:55:29.315Z,10.00
2023-02-28T10:58:05.809Z,10.00
2023-02-28T11:00:44.760Z,9.90
2023-02-28T11:03:35.591Z,9.90
2023-02-28T11:06:22.353Z,10.08
2023-02-28T11:09:03.899Z,10.12
2023-02-28T11:11:52.122Z,10.20
2023-02-28T11:14:32.968Z,10.22
2023-02-28T11:17:28.028Z,10.20
2023-02-28T11:20:08.909Z,10.20
2023-02-28T11:22:50.798Z,10.30
2023-02-28T11:25:34.151Z,10.34
2023-02-28T11:28:27.786Z,10.30
2023-02-28T11:31:31.260Z,10.30
2023-02-28T11:34:25.287Z,10.30
2023-02-28T11:37:06.211Z,10.40
2023-02-28T11:39:43.786Z,10.50
2023-02-28T11:42:48.233Z,10.50
2023-02-28T11:45:57.686Z,10.50
2023-02-28T11:48:44.778Z,10.60
2023-02-28T11:51:31.288Z,10.78
2023-02-28T11:54:40.638Z,10.80
2023-02-28T11:57:35.859Z,10.80
2023-02-28T12:00:35.801Z,10.80
2023-02-28T12:03:30.001Z,10.90
2023-02-28T12:06:23.623Z,10.90
2023-02-28T12:09:21.361Z,10.92
2023-02-28T12:12:11.914Z,10.90
2023-02-28T12:15:28.411Z,10.98
2023-02-28T12:18:51.123Z,11.00
2023-02-28T12:21:40.666Z,11.00
2023-02-28T12:24:38.837Z,11.00
2023-02-28T12:27:21.538Z,11.00
2023-02-28T12:30:04.985Z,11.00
2023-02-28T12:32:47.512Z,11.10
2023-02-28T12:35:29.939Z,11.20
2023-02-28T12:38:18.996Z,11.32
2023-02-28T12:41:02.639Z,11.50
2023-02-28T12:43:47.117Z,11.50
2023-02-28T12:46:32.354Z,11.50
2023-02-28T12:49:16.830Z,11.40
2023-02-28T12:51:55.890Z,11.50
2023-02-28T12:54:39.652Z,11.40
2023-02-28T12:57:29.782Z,11.42
2023-02-28T13:00:14.495Z,11.50
2023-02-28T13:03:47.418Z,11.56
2023-02-28T13:06:51.417Z,11.50
2023-02-28T13:09:28.780Z,11.50
2023-02-28T13:12:15.218Z,11.32
2023-02-28T13:14:52.171Z,11.34
2023-02-28T13:17:30.479Z,11.40
2023-02-28T13:20:18.211Z,11.42
2023-02-28T13:22:56.922Z,11.48
2023-02-28T13:26:00.555Z,11.48
2023-02-28T13:29:32.617Z,11.54
2023-02-28T13:32:47.939Z,11.70
2023-02-28T13:35:48.660Z,11.70
2023-02-28T13:38:49.604Z,11.70
2023-02-28T13:41:55.133Z,11.70
2023-02-28T13:44:32.891Z,11.80
2023-02-28T13:47:34.625Z,11.80
2023-02-28T13:50:30.979Z,11.80
2023-02-28T13:53:56.624Z,11.80
2023-02-28T13:56:47.475Z,11.80
2023-02-28T13:59:37.411Z,11.90
2023-02-28T14:02:55.851Z,12.00
2023-02-28T14:05:35.924Z,12.10
2023-02-28T14:08:19.670Z,12.00
2023-02-28T14:11:09.341Z,11.90
2023-02-28T14:13:53.529Z,11.90
2023-02-28T14:16:39.220Z,11.90
2023-02-28T14:19:24.962Z,12.00
2023-02-28T14:22:22.157Z,12.00
2023-02-28T14:25:20.267Z,11.90
2023-02-28T14:28:08.602Z,11.80
2023-02-28T14:31:11.254Z,11.80
2023-02-28T14:34:30.535Z,11.80
2023-02-28T14:37:09.438Z,11.88
2023-02-28T14:39:50.755Z,11.90
2023-02-28T14:42:45.072Z,11.90
2023-02-28T14:45:30.367Z,11.90
2023-02-28T14:48:13.312Z,12.00
2023-02-28T14:50:59.179Z,11.90
2023-02-28T14:53:44.615Z,11.80
2023-02-28T14:56:31.166Z,11.70
2023-02-28T14:59:08.716Z,11.70
2023-02-28T15:01:45.219Z,11.80
2023-02-28T15:04:32.423Z,11.80
2023-02-28T15:07:19.803Z,11.78
2023-02-28T15:10:24.979Z,11.70
2023-02-28T15:13:05.732Z,11.70
2023-02-28T15:16:02.684Z,11.60
2023-02-28T15:18:52.291Z,11.58
2023-02-28T15:21:31.379Z,11.52
2023-02-28T15:24:15.797Z,11.50
2023-02-28T15:26:59.446Z,11.42
2023-02-28T15:29:47.149Z,11.32
2023-02-28T15:32:38.477Z,11.30
2023-02-28T15:35:34.495Z,11.30
2023-02-28T15:38:27.008Z,11.30
2023-02-28T15:41:09.118Z,11.30
2023-02-28T15:43:45.713Z,11.20
2023-02-28T15:46:23.516Z,11.10
2023-02-28T15:49:02.905Z,11.10
2023-02-28T15:51:42.910Z,11.00
2023-02-28T15:54:28.527Z,11.00
2023-02-28T15:57:16.843Z,11.00
2023-02-28T16:00:00.956Z,11.00
2023-02-28T16:02:42.325Z,10.90
2023-02-28T16:05:36.631Z,10.86
2023-02-28T16:08:21.941Z,10.80
2023-02-28T16:11:00.962Z,10.78
2023-02-28T16:13:38.298Z,10.70
2023-02-28T16:16:21.310Z,10.70
2023-02-28T16:18:58.396Z,10.60
2023-02-28T16:21:35.640Z,10.52
2023-02-28T16:24:14.052Z,10.50
2023-02-28T16:26:52.951Z,10.46
2023-02-28T16:29:35.497Z,10.40
2023-02-28T16:32:13.852Z,10.40
2023-02-28T16:34:51.560Z,10.30
2023-02-28T16:37:28.772Z,10.30
2023-02-28T16:40:06.267Z,10.20
2023-02-28T16:42:44.487Z,10.20
2023-02-28T16:45:27.113Z,10.10
2023-02-28T16:48:03.621Z,10.10
2023-02-28T16:50:40.462Z,10.10
2023-02-28T16:53:16.672Z,10.00
2023-02-28T16:55:54.589Z,9.94
2023-02-28T16:58:30.905Z,9.90
2023-02-28T17:01:08.421Z,9.88
2023-02-28T17:03:44.839Z,9.80
2023-02-28T17:06:29.112Z,9.70
2023-02-28T17:09:06.369Z,9.70
2023-02-28T17:11:43.598Z,9.70
2023-02-28T17:14:20.124Z,9.62
2023-02-28T17:16:57.272Z,9.64
2023-02-28T17:19:33.873Z,9.68
2023-02-28T17:22:14.254Z,9.70
2023-02-28T17:24:50.304Z,9.70
2023-02-28T17:27:28.557Z,9.70
2023-02-28T17:30:06.074Z,9.70
2023-02-28T17:32:42.408Z,9.70
2023-02-28T17:35:19.777Z,9.70
2023-02-28T17:37:57.003Z,9.70
2023-02-28T17:40:35.055Z,9.60
2023-02-28T17:43:11.901Z,9.60
2023-02-28T17:45:48.357Z,9.50
2023-02-28T17:48:25.670Z,9.50
2023-02-28T17:51:03.362Z,9.50
2023-02-28T17:53:39.461Z,9.48
2023-02-28T17:56:21.699Z,9.40
2023-02-28T17:59:00.470Z,9.36
2023-02-28T18:01:36.224Z,9.30
2023-02-28T18:04:14.060Z,9.28
2023-02-28T18:06:52.566Z,9.20
2023-02-28T18:09:30.692Z,9.20
2023-02-28T18:12:08.352Z,9.16
2023-02-28T18:14:46.474Z,9.10
2023-02-28T18:17:22.757Z,9.10
2023-02-28T18:19:59.973Z,9.10
2023-02-28T18:22:37.928Z,9.10
2023-02-28T18:25:18.222Z,9.06
2023-02-28T18:28:01.091Z,9.02
2023-02-28T18:30:41.017Z,9.00
2023-02-28T18:33:17.481Z,9.00
2023-02-28T18:36:01.263Z,8.98
2023-02-28T18:38:38.464Z,8.90
2023-02-28T18:41:16.114Z,8.80
2023-02-28T18:43:54.628Z,8.78
2023-02-28T18:46:32.958Z,8.70
2023-02-28T18:49:10.726Z,8.60
2023-02-28T18:51:47.844Z,8.60
2023-02-28T18:54:24.800Z,8.50
2023-02-28T18:57:01.918Z,8.40
2023-02-28T18:59:39.341Z,8.30
2023-02-28T19:02:16.222Z,8.20
2023-02-28T19:04:54.653Z,8.20
2023-02-28T19:07:32.128Z,8.10
2023-02-28T19:10:10.681Z,8.00
2023-02-28T19:12:48.396Z,7.92
2023-02-28T19:15:25.157Z,7.90
2023-02-28T19:18:01.639Z,7.86
2023-02-28T19:20:38.630Z,7.80
2023-02-28T19:23:15.606Z,7.80
2023-02-28T19:25:52.398Z,7.70
2023-02-28T19:28:30.663Z,7.70
2023-02-28T19:31:06.948Z,7.60
2023-02-28T19:33:42.385Z,7.58
2023-02-28T19:36:20.114Z,7.50
2023-02-28T19:38:56.975Z,7.50
2023-02-28T19:41:34.188Z,7.50
2023-02-28T19:44:11.470Z,7.50
2023-02-28T19:46:48.538Z,7.50
2023-02-28T19:49:26.079Z,7.50
2023-02-28T19:52:04.271Z,7.42
2023-02-28T19:54:40.395Z,7.40
2023-02-28T19:57:16.894Z,7.30
2023-02-28T19:59:53.594Z,7.20
2023-02-28T20:02:31.220Z,7.18
2023-02-28T20:05:08.507Z,7.10
2023-02-28T20:07:45.146Z,7.10
2023-02-28T20:10:23.298Z,7.10
2023-02-28T20:13:00.026Z,7.10
2023-02-28T20:15:36.776Z,7.10
2023-02-28T20:18:13.321Z,7.10
2023-02-28T20:20:50.233Z,7.10
2023-02-28T20:23:26.733Z,7.10
2023-02-28T20:26:06.649Z,7.18
2023-02-28T20:28:44.551Z,7.20
2023-02-28T20:31:23.354Z,7.20
2023-02-28T20:34:01.275Z,7.20
2023-02-28T20:36:37.979Z,7.20
2023-02-28T20:39:14.202Z,7.10
2023-02-28T20:41:51.153Z,7.10
2023-02-28T20:44:29.261Z,7.10
2023-02-28T20:47:06.605Z,7.10
2023-02-28T20:49:43.186Z,7.10
2023-02-28T20:52:19.690Z,7.10
2023-02-28T20:54:55.989Z,7.10
2023-02-28T20:57:35.977Z,7.10
2023-02-28T21:00:20.947Z,7.10
2023-02-28T21:02:59.039Z,7.10
2023-02-28T21:05:36.239Z,7.14
2023-02-28T21:08:12.784Z,7.10
2023-02-28T21:10:48.963Z,7.10
2023-02-28T21:13:27.031Z,7.10
2023-02-28T21:16:09.863Z,7.20
2023-02-28T21:18:46.914Z,7.30
2023-02-28T21:21:27.699Z,7.30
2023-02-28T21:24:04.688Z,7.36
2023-02-28T21:26:41.634Z,7.40
2023-02-28T21:29:19.052Z,7.40
2023-02-28T21:31:58.544Z,7.48
2023-02-28T21:34:35.509Z,7.50
2023-02-28T21:37:12.665Z,7.50
2023-02-28T21:39:50.976Z,7.60
2023-02-28T21:42:27.575Z,7.60
2023-02-28T21:45:03.297Z,7.70
2023-02-28T21:47:40.593Z,7.70
2023-02-28T21:50:22.195Z,7.70
2023-02-28T21:52:59.383Z,7.78
2023-02-28T21:55:39.392Z,7.76
2023-02-28T21:58:16.519Z,7.80
2023-02-28T22:00:53.173Z,7.80
2023-02-28T22:03:30.337Z,7.80
2023-02-28T22:06:16.058Z,7.80
2023-02-28T22:08:55.460Z,7.80
2023-02-28T22:11:33.605Z,7.80
2023-02-28T22:14:12.644Z,7.80
2023-02-28T22:16:52.506Z,7.70
2023-02-28T22:19:31.170Z,7.70
2023-02-28T22:22:08.136Z,7.70
2023-02-28T22:24:47.237Z,7.62
2023-02-28T22:27:24.612Z,7.60
2023-02-28T22:30:02.805Z,7.60
2023-02-28T22:32:41.003Z,7.56
2023-02-28T22:35:21.907Z,7.50
2023-02-28T22:37:59.077Z,7.50
2023-02-28T22:40:36.300Z,7.50
2023-02-28T22:43:12.597Z,7.48
2023-02-28T22:45:48.814Z,7.44
2023-02-28T22:48:25.640Z,7.40
2023-02-28T22:51:13.455Z,7.40
2023-02-28T22:53:52.624Z,7.40
2023-02-28T22:56:32.574Z,7.40
2023-02-28T22:59:09.039Z,7.40
2023-02-28T23:01:47.770Z,7.40
2023-02-28T23:04:26.095Z,7.40
2023-02-28T23:07:03.028Z,7.40
2023-02-28T23:09:39.753Z,7.48
2023-02-28T23:12:17.222Z,7.46
2023-02-28T23:14:56.327Z,7.42
2023-02-28T23:17:36.284Z,7.40
2023-02-28T23:20:17.122Z,7.42
2023-02-28T23:22:53.642Z,7.44
2023-02-28T23:25:30.166Z,7.50
2023-02-28T23:28:07.794Z,7.50
2023-02-28T23:30:44.627Z,7.50
2023-02-28T23:33:21.447Z,7.50
2023-02-28T23:35:58.290Z,7.50
2023-02-28T23:38:34.932Z,7.60
2023-02-28T23:41:14.894Z,7.60
2023-02-28T23:43:52.985Z,7.68
2023-02-28T23:46:30.101Z,7.62
2023-02-28T23:49:07.943Z,7.60
2023-02-28T23:51:43.842Z,7.60
2023-02-28T23:54:20.189Z,7.60
2023-02-28T23:56:57.888Z,7.50
2023-02-28T23:59:34.528Z,7.50
